Strona główna
METAR-TAF:

METAR-TAF

Lotnisko :

Port lotniczy Tartu

Tartu, Estonia

Szerokość geograficzna: 58-18N, Długość geograficzna: 026-44E, wysokość: 59 m

Aktualna obserwacja pogody

Raport powstał 1 godzina i 4 minut temu, godzina 02:50 UTC
Wiatr 10 kt od zachód
Temperatura 1°C
Wilgotność 69%
Ciśnienie 1007 hPa
Widzialność 10 km lub więcej

METAR: EETU 040250Z AUTO 27010KT 9999 BKN068/// 01/M04 Q1007

czas: 06:54 (03:54 UTC)


TAF: brakujący

Obserwacja i prognoza pogody dla ponad 4000 lotnisk (raport METAR i TAF).

Dostępne stacje oznaczono żółtymi i czerwonymi punktami na mapie.

Najedź kursorem aby zobaczyć nazwę stacji.

Kliknij aby zobaczyć obserwacje i prognozy pogody.

Aby zmienić mapę: kliknij na zielony przycisk z czarnym krzyżykiem, aby powiększyć; na zielony przycisk z myślnikiem, aby pomniejszyć; na zielone strzałki, aby przejść do map sąsiednich.


METAR-TAF: